createdAt,value
2022-10-08T00:01:01.835Z,15.53
2022-10-08T00:04:03.368Z,15.49
2022-10-08T00:07:04.875Z,15.42
2022-10-08T00:10:07.489Z,15.34
2022-10-08T00:13:08.916Z,15.43
2022-10-08T00:16:13.789Z,15.38
2022-10-08T00:19:16.247Z,15.52
2022-10-08T00:22:17.790Z,15.56
2022-10-08T00:25:19.206Z,15.54
2022-10-08T00:28:20.694Z,15.52
2022-10-08T00:31:27.916Z,15.55
2022-10-08T00:34:30.880Z,15.70
2022-10-08T00:37:32.433Z,15.66
2022-10-08T00:40:46.604Z,15.69
2022-10-08T00:43:51.808Z,15.60
2022-10-08T00:46:53.567Z,15.61
2022-10-08T00:50:00.683Z,15.59
2022-10-08T00:53:06.068Z,15.62
2022-10-08T00:56:08.730Z,15.59
2022-10-08T00:59:12.573Z,15.56
2022-10-08T01:02:14.616Z,15.52
2022-10-08T01:05:17.492Z,15.58
2022-10-08T01:08:37.143Z,15.58
2022-10-08T01:11:53.369Z,15.54
2022-10-08T01:14:56.902Z,15.45
2022-10-08T01:18:23.084Z,15.50
2022-10-08T01:21:43.495Z,15.44
2022-10-08T01:25:11.862Z,15.37
2022-10-08T01:28:32.696Z,15.36
2022-10-08T01:31:41.178Z,15.40
2022-10-08T01:35:10.997Z,15.37
2022-10-08T01:38:19.139Z,15.24
2022-10-08T01:41:24.479Z,15.21
2022-10-08T01:44:29.024Z,15.11
2022-10-08T01:47:30.894Z,15.19
2022-10-08T01:50:53.985Z,15.27
2022-10-08T01:53:55.976Z,15.29
2022-10-08T01:57:01.155Z,15.31
2022-10-08T02:00:12.365Z,15.31
2022-10-08T02:03:13.972Z,15.35
2022-10-08T02:06:15.509Z,15.45
2022-10-08T02:09:16.920Z,15.49
2022-10-08T02:12:19.561Z,15.34
2022-10-08T02:15:28.099Z,15.34
2022-10-08T02:18:47.799Z,15.37
2022-10-08T02:21:52.620Z,15.43
2022-10-08T02:25:01.331Z,15.46
2022-10-08T02:28:11.191Z,15.37
2022-10-08T02:31:32.814Z,15.35
2022-10-08T02:34:39.624Z,15.39
2022-10-08T02:37:49.098Z,15.34
2022-10-08T02:40:54.540Z,15.37
2022-10-08T02:43:59.696Z,15.25
2022-10-08T02:47:05.371Z,15.35
2022-10-08T02:50:12.341Z,15.37
2022-10-08T02:53:18.262Z,15.44
2022-10-08T02:56:22.450Z,15.38
2022-10-08T02:59:25.134Z,15.17
2022-10-08T03:02:36.272Z,14.75
2022-10-08T03:05:40.344Z,14.86
2022-10-08T03:08:46.836Z,14.96
2022-10-08T03:11:48.783Z,15.07
2022-10-08T03:14:50.905Z,14.90
2022-10-08T03:17:53.222Z,15.07
2022-10-08T03:20:56.140Z,15.11
2022-10-08T03:23:57.532Z,15.27
2022-10-08T03:26:59.058Z,15.37
2022-10-08T03:30:01.016Z,15.36
2022-10-08T03:33:02.825Z,15.27
2022-10-08T03:36:04.722Z,15.03
2022-10-08T03:39:06.251Z,15.01
2022-10-08T03:42:07.702Z,15.02
2022-10-08T03:45:09.363Z,15.18
2022-10-08T03:48:10.832Z,15.13
2022-10-08T03:51:13.906Z,15.12
2022-10-08T03:54:15.347Z,15.19
2022-10-08T03:57:16.737Z,15.19
2022-10-08T04:00:18.232Z,15.09
2022-10-08T04:03:19.640Z,15.09
2022-10-08T04:06:21.438Z,15.09
2022-10-08T04:09:22.873Z,14.96
2022-10-08T04:12:24.309Z,15.14
2022-10-08T04:15:25.877Z,15.16
2022-10-08T04:18:27.496Z,15.05
2022-10-08T04:21:29.565Z,15.12
2022-10-08T04:24:31.015Z,15.20
2022-10-08T04:27:32.451Z,15.32
2022-10-08T04:30:33.860Z,15.19
2022-10-08T04:33:36.053Z,15.11
2022-10-08T04:36:37.434Z,15.18
2022-10-08T04:39:38.830Z,15.07
2022-10-08T04:42:40.234Z,14.96
2022-10-08T04:45:45.501Z,14.99
2022-10-08T04:48:48.954Z,14.89
2022-10-08T04:51:50.343Z,14.77
2022-10-08T04:54:51.816Z,14.80
2022-10-08T04:57:53.217Z,14.80
2022-10-08T05:00:54.625Z,14.73
2022-10-08T05:03:57.714Z,14.83
2022-10-08T05:06:59.121Z,14.98
2022-10-08T05:10:00.522Z,14.96
2022-10-08T05:13:02.818Z,14.82
2022-10-08T05:16:04.981Z,14.93
2022-10-08T05:19:06.536Z,14.97
2022-10-08T05:22:07.957Z,15.00
2022-10-08T05:25:10.069Z,14.93
2022-10-08T05:28:11.506Z,14.90
2022-10-08T05:31:16.570Z,14.85
2022-10-08T05:34:18.194Z,14.80
2022-10-08T05:37:19.668Z,14.81
2022-10-08T05:40:21.452Z,14.69
2022-10-08T05:43:22.890Z,14.62
2022-10-08T05:46:27.234Z,14.79
2022-10-08T05:49:28.737Z,14.75
2022-10-08T05:52:30.162Z,14.69
2022-10-08T05:55:31.748Z,14.72
2022-10-08T05:58:35.086Z,14.57
2022-10-08T06:01:36.483Z,14.62
2022-10-08T06:04:37.916Z,14.67
2022-10-08T06:07:39.515Z,14.76
2022-10-08T06:10:52.356Z,14.81
2022-10-08T06:13:55.221Z,14.72
2022-10-08T06:16:56.789Z,14.63
2022-10-08T06:19:58.302Z,14.52
2022-10-08T06:23:00.208Z,14.58
2022-10-08T06:26:07.231Z,14.67
2022-10-08T06:29:12.977Z,14.74
2022-10-08T06:32:14.454Z,14.82
2022-10-08T06:35:19.033Z,14.89
2022-10-08T06:38:21.227Z,14.99
2022-10-08T06:41:22.631Z,15.08
2022-10-08T06:44:24.063Z,15.20
2022-10-08T06:47:25.574Z,15.26
2022-10-08T06:50:27.066Z,15.27
2022-10-08T06:53:30.730Z,15.23
2022-10-08T06:56:32.513Z,15.30
2022-10-08T06:59:34.005Z,15.27
2022-10-08T07:02:35.526Z,15.36
2022-10-08T07:05:37.031Z,15.38
2022-10-08T07:08:38.676Z,15.25
2022-10-08T07:11:40.302Z,15.21
2022-10-08T07:14:41.791Z,15.26
2022-10-08T07:17:43.281Z,15.34
2022-10-08T07:20:44.723Z,15.36
2022-10-08T07:23:46.617Z,15.53
2022-10-08T07:26:48.083Z,15.68
2022-10-08T07:29:49.485Z,15.83
2022-10-08T07:32:53.766Z,15.97
2022-10-08T07:35:55.202Z,15.86
2022-10-08T07:38:59.533Z,16.04
2022-10-08T07:42:00.984Z,15.96
2022-10-08T07:45:02.501Z,16.24
2022-10-08T07:48:03.955Z,15.98
2022-10-08T07:51:09.643Z,16.11
2022-10-08T07:54:14.490Z,16.32
2022-10-08T07:57:15.976Z,16.37
2022-10-08T08:00:17.428Z,16.10
2022-10-08T08:03:18.838Z,16.08
2022-10-08T08:06:20.296Z,16.04
2022-10-08T08:09:22.057Z,16.10
2022-10-08T08:12:23.694Z,16.26
2022-10-08T08:15:25.222Z,16.51
2022-10-08T08:18:31.328Z,16.58
2022-10-08T08:21:35.871Z,16.53
2022-10-08T08:24:37.283Z,16.85
2022-10-08T08:27:38.768Z,16.90
2022-10-08T08:30:40.204Z,16.83
2022-10-08T08:33:43.206Z,17.05
2022-10-08T08:36:48.641Z,17.29
2022-10-08T08:39:50.050Z,17.74
2022-10-08T08:42:56.597Z,17.75
2022-10-08T08:45:58.115Z,17.57
2022-10-08T08:49:07.787Z,17.74
2022-10-08T08:52:14.704Z,17.44
2022-10-08T08:55:19.900Z,17.12
2022-10-08T08:58:26.215Z,17.43
2022-10-08T09:01:42.271Z,17.53
2022-10-08T09:04:50.427Z,17.87
2022-10-08T09:07:59.197Z,17.92
2022-10-08T09:11:03.441Z,17.90
2022-10-08T09:14:11.713Z,17.83
2022-10-08T09:17:17.244Z,18.11
2022-10-08T09:20:22.509Z,17.91
2022-10-08T09:23:25.718Z,17.25
2022-10-08T09:26:32.768Z,17.50
2022-10-08T09:29:34.327Z,17.33
2022-10-08T09:32:35.787Z,17.38
2022-10-08T09:35:48.330Z,17.39
2022-10-08T09:38:58.496Z,17.63
2022-10-08T09:42:15.062Z,17.63
2022-10-08T09:45:34.551Z,18.04
2022-10-08T09:48:36.114Z,18.38
2022-10-08T09:51:37.608Z,18.12
2022-10-08T09:54:48.674Z,17.71
2022-10-08T09:57:54.257Z,18.12
2022-10-08T10:00:58.854Z,18.39
2022-10-08T10:04:02.678Z,18.73
2022-10-08T10:07:05.690Z,18.84
2022-10-08T10:10:20.607Z,18.69
2022-10-08T10:13:35.999Z,19.04
2022-10-08T10:16:41.334Z,19.89
2022-10-08T10:19:51.718Z,19.96
2022-10-08T10:23:13.320Z,20.02
2022-10-08T10:26:25.374Z,19.54
2022-10-08T10:29:31.768Z,18.63
2022-10-08T10:32:39.997Z,18.32
2022-10-08T10:35:50.332Z,18.94
2022-10-08T10:39:29.535Z,19.17
2022-10-08T10:42:39.378Z,19.91
2022-10-08T10:45:45.131Z,19.57
2022-10-08T10:48:46.638Z,19.89
2022-10-08T10:52:19.701Z,19.91
2022-10-08T10:55:33.222Z,20.11
2022-10-08T10:59:20.129Z,20.41
2022-10-08T11:02:30.837Z,19.82
2022-10-08T11:05:35.910Z,20.24
2022-10-08T11:09:12.436Z,19.33
2022-10-08T11:12:19.835Z,19.30
2022-10-08T11:15:35.490Z,18.29
2022-10-08T11:18:54.834Z,18.13
2022-10-08T11:22:07.844Z,19.52
2022-10-08T11:26:21.523Z,19.65
2022-10-08T11:29:32.779Z,20.47
2022-10-08T11:32:34.772Z,19.59
2022-10-08T11:35:54.856Z,18.73
2022-10-08T11:39:18.162Z,18.23
2022-10-08T11:42:40.202Z,18.00
2022-10-08T11:45:46.021Z,17.67
2022-10-08T11:48:49.744Z,17.27
2022-10-08T11:51:52.466Z,17.24
2022-10-08T11:54:56.032Z,17.60
2022-10-08T11:58:09.332Z,17.76
2022-10-08T12:01:11.456Z,17.98
2022-10-08T12:04:22.714Z,18.07
2022-10-08T12:07:39.572Z,18.35
2022-10-08T12:10:41.662Z,18.22
2022-10-08T12:13:43.028Z,18.43
2022-10-08T12:16:47.547Z,18.11
2022-10-08T12:20:17.707Z,17.95
2022-10-08T12:23:22.089Z,18.17
2022-10-08T12:26:23.530Z,18.32
2022-10-08T12:29:59.726Z,17.83
2022-10-08T12:33:01.381Z,18.25
2022-10-08T12:36:28.505Z,18.46
2022-10-08T12:39:41.425Z,18.70
2022-10-08T12:42:43.429Z,18.59
2022-10-08T12:46:10.877Z,18.59
2022-10-08T12:49:24.703Z,18.63
2022-10-08T12:52:26.674Z,18.92
2022-10-08T12:55:28.956Z,18.88
2022-10-08T12:58:35.375Z,19.09
2022-10-08T13:01:37.130Z,18.92
2022-10-08T13:04:46.500Z,18.69
2022-10-08T13:07:48.183Z,18.42
2022-10-08T13:10:49.868Z,17.97
2022-10-08T13:14:00.089Z,17.92
2022-10-08T13:17:02.276Z,18.01
2022-10-08T13:20:23.431Z,18.17
2022-10-08T13:23:36.599Z,18.35
2022-10-08T13:26:43.943Z,18.21
2022-10-08T13:29:45.432Z,18.38
2022-10-08T13:32:46.863Z,18.16
2022-10-08T13:35:58.312Z,18.45
2022-10-08T13:38:59.858Z,18.51
2022-10-08T13:42:05.165Z,18.43
2022-10-08T13:45:14.394Z,18.57
2022-10-08T13:48:15.943Z,18.30
2022-10-08T13:51:17.380Z,18.29
2022-10-08T13:54:24.819Z,18.55
2022-10-08T13:57:26.465Z,18.48
2022-10-08T14:00:29.924Z,18.37
2022-10-08T14:03:31.736Z,18.19
2022-10-08T14:06:33.293Z,18.18
2022-10-08T14:09:34.736Z,18.27
2022-10-08T14:12:36.277Z,18.23
2022-10-08T14:15:37.752Z,18.10
2022-10-08T14:18:39.372Z,18.00
2022-10-08T14:21:41.473Z,17.88
2022-10-08T14:24:42.846Z,17.90
2022-10-08T14:27:45.506Z,18.12
2022-10-08T14:30:47.175Z,17.87
2022-10-08T14:33:48.669Z,17.87
2022-10-08T14:36:51.634Z,17.71
2022-10-08T14:39:53.139Z,17.71
2022-10-08T14:42:54.628Z,17.62
2022-10-08T14:45:56.163Z,17.42
2022-10-08T14:48:57.922Z,17.52
2022-10-08T14:51:59.338Z,17.71
2022-10-08T14:55:00.732Z,17.81
2022-10-08T14:58:02.386Z,18.08
2022-10-08T15:01:03.888Z,17.84
2022-10-08T15:04:06.490Z,17.71
2022-10-08T15:07:08.116Z,17.95
2022-10-08T15:10:09.962Z,18.18
2022-10-08T15:13:11.423Z,17.93
2022-10-08T15:16:14.357Z,17.97
2022-10-08T15:19:18.724Z,17.61
2022-10-08T15:22:24.171Z,17.91
2022-10-08T15:25:27.404Z,17.98
2022-10-08T15:28:29.751Z,17.99
2022-10-08T15:31:31.321Z,17.71
2022-10-08T15:34:32.806Z,17.45
2022-10-08T15:37:34.301Z,17.47
2022-10-08T15:40:35.997Z,17.47
2022-10-08T15:43:37.423Z,17.41
2022-10-08T15:46:39.257Z,17.40
2022-10-08T15:49:42.967Z,17.22
2022-10-08T15:52:46.493Z,17.32
2022-10-08T15:55:55.653Z,17.23
2022-10-08T15:59:01.268Z,17.35
2022-10-08T16:02:05.082Z,17.25
2022-10-08T16:05:06.953Z,17.15
2022-10-08T16:08:09.556Z,17.21
2022-10-08T16:11:13.247Z,17.41
2022-10-08T16:14:22.485Z,17.34
2022-10-08T16:17:24.154Z,17.23
2022-10-08T16:20:25.581Z,17.19
2022-10-08T16:23:27.065Z,17.07
2022-10-08T16:26:31.684Z,17.01
2022-10-08T16:29:33.186Z,17.06
2022-10-08T16:32:34.750Z,16.77
2022-10-08T16:35:36.263Z,16.79
2022-10-08T16:38:39.981Z,16.80
2022-10-08T16:41:41.746Z,16.64
2022-10-08T16:44:43.191Z,16.39
2022-10-08T16:47:44.718Z,16.30
2022-10-08T16:50:46.133Z,16.14
2022-10-08T16:53:52.451Z,16.05
2022-10-08T16:56:54.522Z,16.11
2022-10-08T16:59:57.466Z,16.14
2022-10-08T17:02:59.140Z,15.95
2022-10-08T17:06:00.886Z,15.79
2022-10-08T17:09:04.153Z,15.58
2022-10-08T17:12:05.751Z,15.51
2022-10-08T17:15:08.113Z,15.74
2022-10-08T17:18:10.062Z,15.79
2022-10-08T17:21:13.017Z,15.65
2022-10-08T17:24:14.777Z,15.54
2022-10-08T17:27:16.179Z,15.14
2022-10-08T17:30:17.661Z,15.07
2022-10-08T17:33:19.069Z,14.95
2022-10-08T17:36:26.540Z,15.20
2022-10-08T17:39:27.991Z,15.37
2022-10-08T17:42:29.443Z,15.33
2022-10-08T17:45:33.387Z,15.33
2022-10-08T17:48:34.788Z,15.39
2022-10-08T17:51:36.208Z,15.24
2022-10-08T17:54:37.626Z,15.18
2022-10-08T17:57:39.104Z,15.05
2022-10-08T18:00:40.656Z,14.94
2022-10-08T18:03:43.572Z,14.77
2022-10-08T18:06:47.538Z,14.67
2022-10-08T18:09:49.937Z,14.54
2022-10-08T18:12:51.396Z,14.51
2022-10-08T18:15:52.889Z,14.35
2022-10-08T18:18:55.015Z,14.25
2022-10-08T18:21:56.497Z,14.10
2022-10-08T18:24:57.952Z,14.35
2022-10-08T18:27:59.332Z,14.21
2022-10-08T18:31:05.603Z,13.97
2022-10-08T18:34:09.699Z,13.88
2022-10-08T18:37:11.299Z,13.83
2022-10-08T18:40:13.081Z,13.80
2022-10-08T18:43:14.492Z,13.73
2022-10-08T18:46:18.702Z,13.65
2022-10-08T18:49:30.146Z,13.61
2022-10-08T18:52:33.159Z,13.61
2022-10-08T18:55:34.585Z,13.61
2022-10-08T18:58:37.457Z,13.56
2022-10-08T19:01:41.865Z,13.42
2022-10-08T19:04:43.718Z,13.57
2022-10-08T19:07:45.128Z,13.55
2022-10-08T19:10:46.649Z,13.39
2022-10-08T19:13:48.467Z,13.39
2022-10-08T19:16:50.371Z,13.40
2022-10-08T19:19:51.924Z,13.29
2022-10-08T19:22:53.530Z,13.44
2022-10-08T19:25:55.273Z,13.37
2022-10-08T19:28:57.634Z,13.31
2022-10-08T19:31:59.591Z,13.30
2022-10-08T19:35:00.999Z,13.38
2022-10-08T19:38:03.023Z,13.62
2022-10-08T19:41:08.979Z,13.84
2022-10-08T19:44:11.707Z,13.55
2022-10-08T19:47:13.123Z,13.65
2022-10-08T19:50:14.678Z,13.64
2022-10-08T19:53:16.236Z,13.33
2022-10-08T19:56:19.591Z,13.29
2022-10-08T19:59:21.213Z,13.38
2022-10-08T20:02:22.736Z,13.54
2022-10-08T20:05:24.195Z,13.61
2022-10-08T20:08:25.802Z,13.45
2022-10-08T20:11:28.292Z,13.17
2022-10-08T20:14:29.921Z,13.14
2022-10-08T20:17:31.419Z,12.91
2022-10-08T20:20:33.822Z,12.89
2022-10-08T20:23:36.215Z,12.84
2022-10-08T20:26:40.340Z,12.81
2022-10-08T20:29:41.847Z,12.64
2022-10-08T20:32:43.236Z,12.74
2022-10-08T20:35:44.622Z,12.99
2022-10-08T20:38:46.141Z,13.11
2022-10-08T20:41:48.194Z,12.98
2022-10-08T20:44:49.993Z,12.56
2022-10-08T20:47:51.457Z,12.79
2022-10-08T20:50:52.879Z,12.64
2022-10-08T20:53:57.180Z,12.47
2022-10-08T20:56:58.896Z,12.59
2022-10-08T21:00:00.457Z,12.66
2022-10-08T21:03:01.899Z,12.63
2022-10-08T21:06:06.167Z,12.60
2022-10-08T21:09:07.959Z,12.47
2022-10-08T21:12:09.492Z,12.32
2022-10-08T21:15:11.184Z,12.40
2022-10-08T21:18:12.641Z,12.59
2022-10-08T21:21:15.371Z,12.49
2022-10-08T21:24:17.023Z,12.47
2022-10-08T21:27:18.560Z,12.32
2022-10-08T21:30:20.000Z,12.46
2022-10-08T21:33:21.419Z,12.19
2022-10-08T21:36:29.016Z,11.91
2022-10-08T21:39:30.471Z,11.97
2022-10-08T21:42:32.200Z,12.04
2022-10-08T21:45:33.987Z,11.97
2022-10-08T21:48:35.526Z,12.23
2022-10-08T21:51:37.114Z,12.24
2022-10-08T21:54:38.525Z,11.95
2022-10-08T21:57:39.945Z,12.03
2022-10-08T22:00:41.930Z,11.94
2022-10-08T22:03:43.497Z,11.92
2022-10-08T22:06:48.122Z,11.94
2022-10-08T22:09:50.257Z,12.10
2022-10-08T22:12:51.665Z,12.04
2022-10-08T22:15:58.436Z,11.76
2022-10-08T22:18:59.996Z,11.60
2022-10-08T22:22:02.066Z,11.51
2022-10-08T22:25:03.839Z,11.66
2022-10-08T22:28:05.681Z,11.60
2022-10-08T22:31:09.193Z,11.46
2022-10-08T22:34:11.032Z,11.53
2022-10-08T22:37:12.481Z,11.53
2022-10-08T22:40:14.149Z,11.45
2022-10-08T22:43:15.573Z,11.57
2022-10-08T22:46:22.544Z,11.52
2022-10-08T22:49:23.999Z,11.43
2022-10-08T22:52:25.408Z,11.40
2022-10-08T22:55:27.285Z,11.53
2022-10-08T22:58:28.863Z,11.52
2022-10-08T23:01:30.878Z,11.51
2022-10-08T23:04:32.685Z,11.35
2022-10-08T23:07:35.376Z,11.40
2022-10-08T23:10:36.881Z,11.50
2022-10-08T23:13:38.382Z,11.44
2022-10-08T23:16:39.879Z,11.01
2022-10-08T23:19:41.317Z,10.93
2022-10-08T23:22:42.915Z,10.66
2022-10-08T23:25:58.405Z,11.12
2022-10-08T23:29:00.621Z,10.95
2022-10-08T23:32:02.037Z,11.26
2022-10-08T23:35:03.562Z,11.40
2022-10-08T23:38:05.235Z,11.20
2022-10-08T23:41:09.504Z,11.15
2022-10-08T23:44:11.572Z,11.04
2022-10-08T23:47:13.022Z,10.89
2022-10-08T23:50:14.479Z,10.82
2022-10-08T23:53:15.981Z,10.98
2022-10-08T23:56:18.383Z,10.83
2022-10-08T23:59:19.855Z,10.83
